createdAt,value
2018-12-07T00:00:27.240Z,0.00
2018-12-07T00:01:27.189Z,0.00
2018-12-07T00:02:27.148Z,0.00
2018-12-07T00:03:27.100Z,0.00
2018-12-07T00:04:27.061Z,0.00
2018-12-07T00:05:27.113Z,0.00
2018-12-07T00:06:26.963Z,0.00
2018-12-07T00:07:26.916Z,0.00
2018-12-07T00:08:26.870Z,0.00
2018-12-07T00:09:26.827Z,0.00
2018-12-07T00:10:26.777Z,0.00
2018-12-07T00:11:26.733Z,0.00
2018-12-07T00:12:26.686Z,0.00
2018-12-07T00:13:26.639Z,0.00
2018-12-07T00:14:26.594Z,0.00
2018-12-07T00:15:26.558Z,0.00
2018-12-07T00:16:26.505Z,0.00
2018-12-07T00:17:26.462Z,0.00
2018-12-07T00:18:26.410Z,0.00
2018-12-07T00:19:26.363Z,0.00
2018-12-07T00:20:26.318Z,0.00
2018-12-07T00:21:26.278Z,0.00
2018-12-07T00:22:26.229Z,0.00
2018-12-07T00:23:26.180Z,0.00
2018-12-07T00:24:26.141Z,0.00
2018-12-07T00:25:26.089Z,0.00
2018-12-07T00:26:26.049Z,0.00
2018-12-07T00:27:26.005Z,0.00
2018-12-07T00:28:25.951Z,0.00
2018-12-07T00:29:25.904Z,0.00
2018-12-07T00:30:25.862Z,0.00
2018-12-07T00:31:25.816Z,0.00
2018-12-07T00:32:25.774Z,0.00
2018-12-07T00:33:25.720Z,0.00
2018-12-07T00:34:25.676Z,0.00
2018-12-07T00:35:25.637Z,0.00
2018-12-07T00:36:25.582Z,0.00
2018-12-07T00:37:25.547Z,0.00
2018-12-07T00:38:25.499Z,0.00
2018-12-07T00:39:25.445Z,0.00
2018-12-07T00:40:25.401Z,0.00
2018-12-07T00:41:25.361Z,0.00
2018-12-07T00:42:25.306Z,0.00
2018-12-07T00:43:25.261Z,0.00
2018-12-07T00:44:25.220Z,0.00
2018-12-07T00:45:25.172Z,0.00
2018-12-07T00:46:25.130Z,0.00
2018-12-07T00:47:25.086Z,0.00
2018-12-07T00:48:25.044Z,0.00
2018-12-07T00:49:24.988Z,0.00
2018-12-07T00:50:24.945Z,0.00
2018-12-07T00:51:24.894Z,0.00
2018-12-07T00:52:24.849Z,0.00
2018-12-07T00:53:24.801Z,0.00
2018-12-07T00:54:24.763Z,0.00
2018-12-07T00:55:24.710Z,0.00
2018-12-07T00:56:24.669Z,0.00
2018-12-07T00:57:24.620Z,0.00
2018-12-07T00:58:24.583Z,0.00
2018-12-07T00:59:24.532Z,0.00
2018-12-07T01:00:24.483Z,0.00
2018-12-07T01:01:24.439Z,0.00
2018-12-07T01:02:24.393Z,0.00
2018-12-07T01:03:24.346Z,0.00
2018-12-07T01:04:24.300Z,0.00
2018-12-07T01:05:24.251Z,0.00
2018-12-07T01:06:24.211Z,0.00
2018-12-07T01:07:24.163Z,0.00
2018-12-07T01:08:24.116Z,0.00
2018-12-07T01:09:24.069Z,0.00
2018-12-07T01:10:24.024Z,0.00
2018-12-07T01:11:23.980Z,0.00
2018-12-07T01:12:23.940Z,0.00
2018-12-07T01:13:23.894Z,0.00
2018-12-07T01:14:23.845Z,0.00
2018-12-07T01:15:23.794Z,0.00
2018-12-07T01:16:23.750Z,0.00
2018-12-07T01:17:23.703Z,0.00
2018-12-07T01:18:23.656Z,0.00
2018-12-07T01:19:23.615Z,0.00
2018-12-07T01:20:23.574Z,0.00
2018-12-07T01:21:23.519Z,0.00
2018-12-07T01:22:23.473Z,0.00
2018-12-07T01:23:23.437Z,0.00
2018-12-07T01:24:23.383Z,0.00
2018-12-07T01:25:23.337Z,0.00
2018-12-07T01:26:23.290Z,0.00
2018-12-07T01:27:23.257Z,0.00
2018-12-07T01:28:23.229Z,0.00
2018-12-07T01:29:23.160Z,0.00
2018-12-07T01:30:23.111Z,0.00
2018-12-07T01:31:23.061Z,0.00
2018-12-07T01:32:23.112Z,0.00
2018-12-07T01:33:22.971Z,0.00
2018-12-07T01:34:22.928Z,0.00
2018-12-07T01:35:22.881Z,0.00
2018-12-07T01:36:22.833Z,0.00
2018-12-07T01:37:22.788Z,0.00
2018-12-07T01:38:22.740Z,0.00
2018-12-07T01:39:22.697Z,0.00
2018-12-07T01:40:22.651Z,0.00
2018-12-07T01:41:22.609Z,0.00
2018-12-07T01:42:22.558Z,0.00
2018-12-07T01:43:22.516Z,0.00
2018-12-07T01:44:22.466Z,0.00
2018-12-07T01:45:22.420Z,0.00
2018-12-07T01:46:22.374Z,0.00
2018-12-07T01:47:22.335Z,0.00
2018-12-07T01:48:22.301Z,0.00
2018-12-07T01:49:22.238Z,0.00
2018-12-07T01:50:22.197Z,0.00
2018-12-07T01:51:22.145Z,0.00
2018-12-07T01:52:22.102Z,0.00
2018-12-07T01:53:22.053Z,0.00
2018-12-07T01:54:22.010Z,0.00
2018-12-07T01:55:21.967Z,0.00
2018-12-07T01:56:21.917Z,0.00
2018-12-07T01:57:21.876Z,0.00
2018-12-07T01:58:21.823Z,0.00
2018-12-07T01:59:21.781Z,0.00
2018-12-07T02:00:21.739Z,0.00
2018-12-07T02:01:21.685Z,0.00
2018-12-07T02:02:21.639Z,0.00
2018-12-07T02:03:21.602Z,0.00
2018-12-07T02:04:21.549Z,0.00
2018-12-07T02:05:21.500Z,0.00
2018-12-07T02:06:21.456Z,0.00
2018-12-07T02:07:21.415Z,0.00
2018-12-07T02:08:21.367Z,0.00
2018-12-07T02:09:21.320Z,0.00
2018-12-07T02:10:21.281Z,0.00
2018-12-07T02:11:21.233Z,0.00
2018-12-07T02:12:21.182Z,0.00
2018-12-07T02:13:21.138Z,0.00
2018-12-07T02:14:21.095Z,0.00
2018-12-07T02:15:21.049Z,0.00
2018-12-07T02:16:20.997Z,0.00
2018-12-07T02:17:20.964Z,0.00
2018-12-07T02:18:20.915Z,0.00
2018-12-07T02:19:20.861Z,0.00
2018-12-07T02:20:20.813Z,0.00
2018-12-07T02:21:20.774Z,0.00
2018-12-07T02:22:20.721Z,0.00
2018-12-07T02:23:20.679Z,0.00
2018-12-07T02:24:20.635Z,0.00
2018-12-07T02:25:20.586Z,0.00
2018-12-07T02:26:20.540Z,0.00
2018-12-07T02:27:20.497Z,0.00
2018-12-07T02:28:20.455Z,0.00
2018-12-07T02:29:20.406Z,0.00
2018-12-07T02:30:20.367Z,0.00
2018-12-07T02:31:20.319Z,0.00
2018-12-07T02:32:20.269Z,0.00
2018-12-07T02:33:20.219Z,0.00
2018-12-07T02:34:20.174Z,0.00
2018-12-07T02:35:20.127Z,0.00
2018-12-07T02:36:20.079Z,0.00
2018-12-07T02:37:20.041Z,0.00
2018-12-07T02:38:19.997Z,0.00
2018-12-07T02:39:19.949Z,0.00
2018-12-07T02:40:19.895Z,0.00
2018-12-07T02:41:19.849Z,0.00
2018-12-07T02:42:19.809Z,0.00
2018-12-07T02:43:19.760Z,0.00
2018-12-07T02:44:19.710Z,0.00
2018-12-07T02:45:19.666Z,0.00
2018-12-07T02:46:19.629Z,0.00
2018-12-07T02:47:19.574Z,0.00
2018-12-07T02:48:19.527Z,0.00
2018-12-07T02:49:19.481Z,0.00
2018-12-07T02:50:19.440Z,0.00
2018-12-07T02:51:19.392Z,0.00
2018-12-07T02:52:19.344Z,0.00
2018-12-07T02:53:19.302Z,0.00
2018-12-07T02:54:19.250Z,0.00
2018-12-07T02:55:19.209Z,0.00
2018-12-07T02:56:19.160Z,0.00
2018-12-07T02:57:19.124Z,0.00
2018-12-07T02:58:19.074Z,0.00
2018-12-07T02:59:19.025Z,0.00
2018-12-07T03:00:18.978Z,0.00
2018-12-07T03:01:18.935Z,0.00
2018-12-07T03:02:18.895Z,0.00
2018-12-07T03:03:18.842Z,0.00
2018-12-07T03:04:18.797Z,0.00
2018-12-07T03:05:18.748Z,0.00
2018-12-07T03:06:18.703Z,0.00
2018-12-07T03:07:18.655Z,0.00
2018-12-07T03:08:18.607Z,0.00
2018-12-07T03:09:18.562Z,0.00
2018-12-07T03:10:18.515Z,0.00
2018-12-07T03:11:18.471Z,0.00
2018-12-07T03:12:18.431Z,0.00
2018-12-07T03:13:18.383Z,0.00
2018-12-07T03:14:18.331Z,0.00
2018-12-07T03:15:18.294Z,0.00
2018-12-07T03:16:18.240Z,0.00
2018-12-07T03:17:18.199Z,0.00
2018-12-07T03:18:18.148Z,0.00
2018-12-07T03:19:18.105Z,0.00
2018-12-07T03:20:18.057Z,0.00
2018-12-07T03:21:18.016Z,0.00
2018-12-07T03:22:17.974Z,0.00
2018-12-07T03:23:17.918Z,0.00
2018-12-07T03:24:17.879Z,0.00
2018-12-07T03:25:17.827Z,0.00
2018-12-07T03:26:17.811Z,0.00
2018-12-07T03:27:17.748Z,0.00
2018-12-07T03:28:17.689Z,0.00
2018-12-07T03:29:17.644Z,0.00
2018-12-07T03:30:17.605Z,0.00
2018-12-07T03:31:17.551Z,0.00
2018-12-07T03:32:17.508Z,0.00
2018-12-07T03:33:17.470Z,0.00
2018-12-07T03:34:17.423Z,0.00
2018-12-07T03:35:17.371Z,0.00
2018-12-07T03:36:17.332Z,0.00
2018-12-07T03:37:17.285Z,0.00
2018-12-07T03:38:17.236Z,0.00
2018-12-07T03:39:17.198Z,0.00
2018-12-07T03:40:17.137Z,0.00
2018-12-07T03:41:17.089Z,0.00
2018-12-07T03:42:17.045Z,0.00
2018-12-07T03:43:16.998Z,0.00
2018-12-07T03:44:16.955Z,0.00
2018-12-07T03:45:16.908Z,0.00
2018-12-07T03:46:16.863Z,0.00
2018-12-07T03:47:16.821Z,0.00
2018-12-07T03:48:16.798Z,0.00
2018-12-07T03:49:16.731Z,0.00
2018-12-07T03:50:16.685Z,0.00
2018-12-07T03:51:16.633Z,0.00
2018-12-07T03:52:16.592Z,0.00
2018-12-07T03:53:16.537Z,0.00
2018-12-07T03:54:16.521Z,0.00
2018-12-07T03:55:16.457Z,0.00
2018-12-07T03:56:16.401Z,0.00
2018-12-07T03:57:16.357Z,0.00
2018-12-07T03:58:16.316Z,0.00
2018-12-07T03:59:16.269Z,0.00
2018-12-07T04:00:16.224Z,0.00
2018-12-07T04:01:16.181Z,0.00
2018-12-07T04:02:16.135Z,0.00
2018-12-07T04:03:16.079Z,0.00
2018-12-07T04:04:16.117Z,0.00
2018-12-07T04:05:15.987Z,0.00
2018-12-07T04:06:15.943Z,0.00
2018-12-07T04:07:15.905Z,0.00
2018-12-07T04:08:15.855Z,0.00
2018-12-07T04:09:15.803Z,0.00
2018-12-07T04:10:15.767Z,0.00
2018-12-07T04:11:15.713Z,0.00
2018-12-07T04:12:15.665Z,0.00
2018-12-07T04:13:15.637Z,0.00
2018-12-07T04:14:15.574Z,0.00
2018-12-07T04:15:15.535Z,0.00
2018-12-07T04:16:15.481Z,0.00
2018-12-07T04:17:15.434Z,0.00
2018-12-07T04:18:15.394Z,0.00
2018-12-07T04:19:15.347Z,0.00
2018-12-07T04:20:15.305Z,0.00
2018-12-07T04:21:15.276Z,0.00
2018-12-07T04:22:15.203Z,0.00
2018-12-07T04:23:15.158Z,0.00
2018-12-07T04:24:15.119Z,0.00
2018-12-07T04:25:15.066Z,0.00
2018-12-07T04:26:15.030Z,0.00
2018-12-07T04:27:14.973Z,0.00
2018-12-07T04:28:14.928Z,0.00
2018-12-07T04:29:14.881Z,0.00
2018-12-07T04:30:14.843Z,0.00
2018-12-07T04:31:14.797Z,0.00
2018-12-07T04:32:14.746Z,0.00
2018-12-07T04:33:14.701Z,0.00
2018-12-07T04:34:14.653Z,0.00
2018-12-07T04:35:14.610Z,0.00
2018-12-07T04:36:14.570Z,0.00
2018-12-07T04:37:14.513Z,0.00
2018-12-07T04:38:14.468Z,0.00
2018-12-07T04:39:14.423Z,0.00
2018-12-07T04:40:14.376Z,0.00
2018-12-07T04:41:14.328Z,0.00
2018-12-07T04:42:14.297Z,0.00
2018-12-07T04:43:14.239Z,0.00
2018-12-07T04:44:14.318Z,0.00
2018-12-07T04:45:14.146Z,0.00
2018-12-07T04:46:14.098Z,0.00
2018-12-07T04:47:14.056Z,0.00
2018-12-07T04:48:14.006Z,0.00
2018-12-07T04:49:13.961Z,0.00
2018-12-07T04:50:13.921Z,0.00
2018-12-07T04:51:13.873Z,0.00
2018-12-07T04:52:13.825Z,0.00
2018-12-07T04:53:13.776Z,0.00
2018-12-07T04:54:13.734Z,0.00
2018-12-07T04:55:13.691Z,0.00
2018-12-07T04:56:13.643Z,0.00
2018-12-07T04:57:13.593Z,0.00
2018-12-07T04:58:13.559Z,0.00
2018-12-07T04:59:13.510Z,0.00
2018-12-07T05:00:13.464Z,0.00
2018-12-07T05:01:13.410Z,0.00
2018-12-07T05:02:13.372Z,0.00
2018-12-07T05:03:13.317Z,0.00
2018-12-07T05:04:13.281Z,0.00
2018-12-07T05:05:13.225Z,0.00
2018-12-07T05:06:13.187Z,0.00
2018-12-07T05:07:13.141Z,0.00
2018-12-07T05:08:13.088Z,0.00
2018-12-07T05:09:13.040Z,0.00
2018-12-07T05:10:12.996Z,0.00
2018-12-07T05:11:12.949Z,0.00
2018-12-07T05:12:12.906Z,0.00
2018-12-07T05:13:12.865Z,0.00
2018-12-07T05:14:12.814Z,0.00
2018-12-07T05:15:12.772Z,0.00
2018-12-07T05:16:12.721Z,0.00
2018-12-07T05:17:12.673Z,0.00
2018-12-07T05:18:12.629Z,0.00
2018-12-07T05:19:12.582Z,0.00
2018-12-07T05:20:12.537Z,0.00
2018-12-07T05:21:12.490Z,0.00
2018-12-07T05:22:12.444Z,0.00
2018-12-07T05:23:12.403Z,0.00
2018-12-07T05:24:12.359Z,0.00
2018-12-07T05:25:12.316Z,0.00
2018-12-07T05:26:12.260Z,0.00
2018-12-07T05:27:12.222Z,0.00
2018-12-07T05:28:12.174Z,0.00
2018-12-07T05:29:12.123Z,0.00
2018-12-07T05:30:12.078Z,0.00
2018-12-07T05:31:12.039Z,0.00
2018-12-07T05:32:12.001Z,0.00
2018-12-07T05:33:11.946Z,0.00
2018-12-07T05:34:11.894Z,0.00
2018-12-07T05:35:11.855Z,0.00
2018-12-07T05:36:11.804Z,0.00
2018-12-07T05:37:11.759Z,0.00
2018-12-07T05:38:11.715Z,0.00
2018-12-07T05:39:11.732Z,0.00
2018-12-07T05:40:11.624Z,0.00
2018-12-07T05:41:11.575Z,0.00
2018-12-07T05:42:11.527Z,0.00
2018-12-07T05:43:11.482Z,0.00
2018-12-07T05:44:11.445Z,0.00
2018-12-07T05:45:11.401Z,0.00
2018-12-07T05:46:11.343Z,0.00
2018-12-07T05:47:11.304Z,0.00
2018-12-07T05:48:11.258Z,0.00
2018-12-07T05:49:11.207Z,0.00
2018-12-07T05:50:11.175Z,0.00
2018-12-07T05:51:11.115Z,0.00
2018-12-07T05:52:11.072Z,0.00
2018-12-07T05:53:11.021Z,0.00
2018-12-07T05:54:10.975Z,0.00
2018-12-07T05:55:10.933Z,0.00
2018-12-07T05:56:10.886Z,0.00
2018-12-07T05:57:10.841Z,0.00
2018-12-07T05:58:10.798Z,0.00
2018-12-07T05:59:10.746Z,0.00
2018-12-07T06:00:10.702Z,0.00
2018-12-07T06:01:10.654Z,0.00
2018-12-07T06:02:10.608Z,0.00
2018-12-07T06:03:10.563Z,0.00
2018-12-07T06:04:10.517Z,0.00
2018-12-07T06:05:10.469Z,0.00
2018-12-07T06:06:10.434Z,0.00
2018-12-07T06:07:10.379Z,0.00
2018-12-07T06:08:10.337Z,0.00
2018-12-07T06:09:10.292Z,0.00
2018-12-07T06:10:10.239Z,0.00
2018-12-07T06:11:10.196Z,0.00
2018-12-07T06:12:10.156Z,0.00
2018-12-07T06:13:10.108Z,0.00
2018-12-07T06:14:10.057Z,0.00
2018-12-07T06:15:10.022Z,0.00
2018-12-07T06:16:09.970Z,0.00
2018-12-07T06:17:09.917Z,0.00
2018-12-07T06:18:09.872Z,0.00
2018-12-07T06:19:09.833Z,0.00
2018-12-07T06:20:09.781Z,0.00
2018-12-07T06:21:09.732Z,0.00
2018-12-07T06:22:09.688Z,0.00
2018-12-07T06:23:09.652Z,0.00
2018-12-07T06:24:09.596Z,0.00
2018-12-07T06:25:09.554Z,0.00
2018-12-07T06:26:09.511Z,0.00
2018-12-07T06:27:09.458Z,0.00
2018-12-07T06:28:09.419Z,0.00
2018-12-07T06:29:09.378Z,0.00
2018-12-07T06:30:09.320Z,0.00
2018-12-07T06:31:09.280Z,0.00
2018-12-07T06:32:09.229Z,0.00
2018-12-07T06:33:09.189Z,0.00
2018-12-07T06:34:09.144Z,0.00
2018-12-07T06:35:09.093Z,0.00
2018-12-07T06:36:09.050Z,0.00
2018-12-07T06:37:09.010Z,0.00
2018-12-07T06:38:08.970Z,0.00
2018-12-07T06:39:08.906Z,0.00
2018-12-07T06:40:08.869Z,0.00
2018-12-07T06:41:08.823Z,0.00
2018-12-07T06:42:08.772Z,0.00
2018-12-07T06:43:08.736Z,0.00
2018-12-07T06:44:08.678Z,0.00
2018-12-07T06:45:08.640Z,0.00
2018-12-07T06:46:08.586Z,0.00
2018-12-07T06:47:08.543Z,0.00
2018-12-07T06:48:08.491Z,0.00
2018-12-07T06:49:08.445Z,0.00
2018-12-07T06:50:08.406Z,0.00
2018-12-07T06:51:08.354Z,0.00
2018-12-07T06:52:08.315Z,0.00
2018-12-07T06:53:08.263Z,0.00
2018-12-07T06:54:08.217Z,0.00
2018-12-07T06:55:08.175Z,0.00
2018-12-07T06:56:08.138Z,0.00
2018-12-07T06:57:08.093Z,0.00
2018-12-07T06:58:08.046Z,0.00
2018-12-07T06:59:07.997Z,0.00
2018-12-07T07:00:07.944Z,0.00
2018-12-07T07:01:07.895Z,0.00
2018-12-07T07:02:07.850Z,0.00
2018-12-07T07:03:07.802Z,0.00
2018-12-07T07:04:07.760Z,0.00
2018-12-07T07:05:07.709Z,4.00
2018-12-07T07:06:07.685Z,4.00
2018-12-07T07:07:07.627Z,4.00
2018-12-07T07:08:07.574Z,4.00
2018-12-07T07:09:07.526Z,4.00
2018-12-07T07:10:07.488Z,0.00
2018-12-07T07:11:07.443Z,4.00
2018-12-07T07:12:07.390Z,4.00
2018-12-07T07:13:07.346Z,4.00
2018-12-07T07:14:07.299Z,4.00
2018-12-07T07:15:07.251Z,8.00
2018-12-07T07:16:07.205Z,4.00
2018-12-07T07:17:07.158Z,8.00
2018-12-07T07:18:07.114Z,8.00
2018-12-07T07:19:07.068Z,8.00
2018-12-07T07:20:07.028Z,12.00
2018-12-07T07:21:06.974Z,12.00
2018-12-07T07:22:06.928Z,12.00
2018-12-07T07:23:06.949Z,12.00
2018-12-07T07:24:06.837Z,12.00
2018-12-07T07:25:06.792Z,12.00
2018-12-07T07:26:06.745Z,12.00
2018-12-07T07:27:06.701Z,16.00
2018-12-07T07:28:06.663Z,16.00
2018-12-07T07:29:06.621Z,16.00
2018-12-07T07:30:06.561Z,16.00
2018-12-07T07:31:06.517Z,16.00
2018-12-07T07:32:06.473Z,16.00
2018-12-07T07:33:06.432Z,16.00
2018-12-07T07:34:06.384Z,20.00
2018-12-07T07:35:06.332Z,24.00
2018-12-07T07:36:06.288Z,24.00
2018-12-07T07:37:06.261Z,28.00
2018-12-07T07:38:06.194Z,32.00
2018-12-07T07:39:06.148Z,36.00
2018-12-07T07:40:06.103Z,40.00
2018-12-07T07:41:06.054Z,48.00
2018-12-07T07:42:06.008Z,44.00
2018-12-07T07:43:05.974Z,56.00
2018-12-07T07:44:05.921Z,56.00
2018-12-07T07:45:05.873Z,64.00
2018-12-07T07:46:05.830Z,64.00
2018-12-07T07:47:05.778Z,72.00
2018-12-07T07:48:05.734Z,68.00
2018-12-07T07:49:05.694Z,80.00
2018-12-07T07:50:05.648Z,84.00
2018-12-07T07:51:05.597Z,80.00
2018-12-07T07:52:05.550Z,80.00
2018-12-07T07:53:05.502Z,80.00
2018-12-07T07:54:05.461Z,88.00
2018-12-07T07:55:05.418Z,84.00
2018-12-07T07:56:05.366Z,88.00
2018-12-07T07:57:05.326Z,96.00
2018-12-07T07:58:05.279Z,100.00
2018-12-07T07:59:05.238Z,100.00
2018-12-07T08:00:05.188Z,96.00
2018-12-07T08:01:05.142Z,104.00
2018-12-07T08:02:05.090Z,100.00
2018-12-07T08:03:05.043Z,96.00
2018-12-07T08:04:04.997Z,100.00
2018-12-07T08:05:04.951Z,104.00
2018-12-07T08:06:04.906Z,116.00
2018-12-07T08:07:04.859Z,132.00
2018-12-07T08:08:04.818Z,132.00
2018-12-07T08:09:04.780Z,136.00
2018-12-07T08:10:04.727Z,124.00
2018-12-07T08:11:04.676Z,140.00
2018-12-07T08:12:04.639Z,160.00
2018-12-07T08:13:04.582Z,156.00
2018-12-07T08:14:04.537Z,152.00
2018-12-07T08:15:04.492Z,164.00
2018-12-07T08:16:04.446Z,164.00
2018-12-07T08:17:04.405Z,156.00
2018-12-07T08:18:04.356Z,172.00
2018-12-07T08:19:04.312Z,144.00
2018-12-07T08:20:04.264Z,132.00
2018-12-07T08:21:04.222Z,124.00
2018-12-07T08:22:04.170Z,120.00
2018-12-07T08:23:04.123Z,128.00
2018-12-07T08:24:04.078Z,128.00
2018-12-07T08:25:04.030Z,128.00
2018-12-07T08:26:03.988Z,136.00
2018-12-07T08:27:03.942Z,144.00
2018-12-07T08:28:03.906Z,136.00
2018-12-07T08:29:03.849Z,136.00
2018-12-07T08:30:03.811Z,156.00
2018-12-07T08:31:03.756Z,152.00
2018-12-07T08:32:03.711Z,156.00
2018-12-07T08:33:03.664Z,136.00
2018-12-07T08:34:03.617Z,164.00
2018-12-07T08:35:03.571Z,136.00
2018-12-07T08:36:03.530Z,140.00
2018-12-07T08:37:03.480Z,140.00
2018-12-07T08:38:03.435Z,144.00
2018-12-07T08:39:03.388Z,156.00
2018-12-07T08:40:03.342Z,156.00
2018-12-07T08:41:03.307Z,164.00
2018-12-07T08:42:06.789Z,192.00
2018-12-07T08:43:03.203Z,172.00
2018-12-07T08:44:03.159Z,192.00
2018-12-07T08:45:03.117Z,164.00
2018-12-07T08:46:03.074Z,164.00
2018-12-07T08:47:03.028Z,160.00
2018-12-07T08:48:02.972Z,164.00
2018-12-07T08:49:02.936Z,172.00
2018-12-07T08:50:02.879Z,168.00
2018-12-07T08:51:02.845Z,156.00
2018-12-07T08:52:02.790Z,180.00
2018-12-07T08:53:02.742Z,188.00
2018-12-07T08:54:02.702Z,200.00
2018-12-07T08:55:02.655Z,208.00
2018-12-07T08:56:02.607Z,224.00
2018-12-07T08:57:02.567Z,212.00
2018-12-07T08:58:02.523Z,224.00
2018-12-07T08:59:02.466Z,216.00
2018-12-07T09:00:02.421Z,244.00
2018-12-07T09:01:02.375Z,252.00
2018-12-07T09:02:02.329Z,276.00
2018-12-07T09:03:02.284Z,256.00
2018-12-07T09:04:02.241Z,260.00
2018-12-07T09:05:02.193Z,292.00
2018-12-07T09:06:02.152Z,272.00
2018-12-07T09:07:02.106Z,316.00
2018-12-07T09:08:02.055Z,316.00
2018-12-07T09:09:02.016Z,296.00
2018-12-07T09:10:01.965Z,316.00
2018-12-07T09:11:01.915Z,284.00
2018-12-07T09:12:01.870Z,304.00
2018-12-07T09:13:01.832Z,296.00
2018-12-07T09:14:01.791Z,276.00
2018-12-07T09:15:01.796Z,268.00
2018-12-07T09:16:01.800Z,252.00
2018-12-07T09:17:01.733Z,268.00
2018-12-07T09:18:01.697Z,280.00
2018-12-07T09:19:01.556Z,280.00
2018-12-07T09:20:01.503Z,260.00
2018-12-07T09:21:01.466Z,280.00
2018-12-07T09:22:01.412Z,252.00
2018-12-07T09:23:01.367Z,288.00
2018-12-07T09:24:01.328Z,324.00
2018-12-07T09:25:01.274Z,316.00
2018-12-07T09:26:01.226Z,352.00
2018-12-07T09:27:01.190Z,376.00
2018-12-07T09:28:01.138Z,400.00
2018-12-07T09:29:01.089Z,420.00
2018-12-07T09:30:01.042Z,428.00
2018-12-07T09:31:00.998Z,396.00
2018-12-07T09:32:00.955Z,424.00
2018-12-07T09:33:00.911Z,388.00
2018-12-07T09:34:00.858Z,384.00
2018-12-07T09:35:00.813Z,384.00
2018-12-07T09:36:00.772Z,420.00
2018-12-07T09:37:00.720Z,380.00
2018-12-07T09:38:00.683Z,396.00
2018-12-07T09:39:00.629Z,396.00
2018-12-07T09:40:00.590Z,396.00
2018-12-07T09:41:00.539Z,364.00
2018-12-07T09:42:00.493Z,400.00
2018-12-07T09:43:00.446Z,408.00
2018-12-07T09:44:00.400Z,408.00
2018-12-07T09:45:00.364Z,392.00
2018-12-07T09:46:00.316Z,404.00
2018-12-07T09:47:00.264Z,424.00
2018-12-07T09:48:00.223Z,396.00
2018-12-07T09:49:00.174Z,372.00
2018-12-07T09:50:00.123Z,348.00
2018-12-07T09:51:00.078Z,348.00
2018-12-07T09:52:00.033Z,352.00
2018-12-07T09:52:59.986Z,364.00
2018-12-07T09:53:59.947Z,332.00
2018-12-07T09:54:59.903Z,368.00
2018-12-07T09:55:59.848Z,344.00
2018-12-07T09:56:59.801Z,332.00
2018-12-07T09:57:59.758Z,336.00
2018-12-07T09:58:59.714Z,356.00
2018-12-07T09:59:59.664Z,368.00
2018-12-07T10:00:59.619Z,412.00
2018-12-07T10:01:59.572Z,404.00
2018-12-07T10:02:59.539Z,440.00
2018-12-07T10:03:59.481Z,400.00
2018-12-07T10:04:59.444Z,416.00
2018-12-07T10:05:59.403Z,432.00
2018-12-07T10:06:59.344Z,464.00
2018-12-07T10:07:59.297Z,480.00
2018-12-07T10:08:59.252Z,440.00
2018-12-07T10:09:59.205Z,536.00
2018-12-07T10:10:59.173Z,568.00
2018-12-07T10:11:59.120Z,544.00
2018-12-07T10:12:59.069Z,640.00
2018-12-07T10:13:59.032Z,712.00
2018-12-07T10:14:58.979Z,696.00
2018-12-07T10:15:58.930Z,664.00
2018-12-07T10:16:58.885Z,632.00
2018-12-07T10:17:58.845Z,572.00
2018-12-07T10:18:58.792Z,544.00
2018-12-07T10:19:58.747Z,472.00
2018-12-07T10:20:58.701Z,488.00
2018-12-07T10:21:58.657Z,472.00
2018-12-07T10:22:58.612Z,432.00
2018-12-07T10:23:58.567Z,428.00
2018-12-07T10:24:58.528Z,440.00
2018-12-07T10:25:58.476Z,476.00
2018-12-07T10:26:58.433Z,396.00
2018-12-07T10:27:58.380Z,404.00
2018-12-07T10:28:58.342Z,404.00
2018-12-07T10:29:58.289Z,476.00
2018-12-07T10:30:58.244Z,520.00
2018-12-07T10:31:58.200Z,508.00
2018-12-07T10:32:58.153Z,492.00
2018-12-07T10:33:58.117Z,500.00
2018-12-07T10:34:58.067Z,560.00
2018-12-07T10:35:58.020Z,572.00
2018-12-07T10:36:57.968Z,552.00
2018-12-07T10:37:57.997Z,552.00
2018-12-07T10:38:57.877Z,552.00
2018-12-07T10:39:57.829Z,536.00
2018-12-07T10:40:57.796Z,544.00
2018-12-07T10:41:57.749Z,484.00
2018-12-07T10:42:57.692Z,432.00
2018-12-07T10:43:57.648Z,452.00
2018-12-07T10:44:57.599Z,476.00
2018-12-07T10:45:57.556Z,524.00
2018-12-07T10:46:57.510Z,528.00
2018-12-07T10:47:57.465Z,528.00
2018-12-07T10:48:57.420Z,560.00
2018-12-07T10:49:57.372Z,592.00
2018-12-07T10:50:57.333Z,596.00
2018-12-07T10:51:57.286Z,536.00
2018-12-07T10:52:57.237Z,396.00
2018-12-07T10:53:57.189Z,352.00
2018-12-07T10:54:57.149Z,364.00
2018-12-07T10:55:57.100Z,404.00
2018-12-07T10:56:57.054Z,392.00
2018-12-07T10:57:57.006Z,400.00
2018-12-07T10:58:56.964Z,476.00
2018-12-07T10:59:56.920Z,536.00
2018-12-07T11:00:56.874Z,520.00
2018-12-07T11:01:56.824Z,536.00
2018-12-07T11:02:56.782Z,564.00
2018-12-07T11:03:56.743Z,616.00
2018-12-07T11:04:56.695Z,716.00
2018-12-07T11:05:56.644Z,676.00
2018-12-07T11:06:56.599Z,648.00
2018-12-07T11:07:56.557Z,744.00
2018-12-07T11:08:56.504Z,756.00
2018-12-07T11:09:56.455Z,916.00
2018-12-07T11:10:56.415Z,1012.00
2018-12-07T11:11:56.371Z,1032.00
2018-12-07T11:12:56.324Z,924.00
2018-12-07T11:13:56.274Z,908.00
2018-12-07T11:14:56.234Z,860.00
2018-12-07T11:15:56.184Z,908.00
2018-12-07T11:16:56.149Z,928.00
2018-12-07T11:17:56.094Z,832.00
2018-12-07T11:18:56.049Z,776.00
2018-12-07T11:19:55.998Z,804.00
2018-12-07T11:20:55.978Z,940.00
2018-12-07T11:21:55.909Z,964.00
2018-12-07T11:22:55.864Z,968.00
2018-12-07T11:23:55.817Z,856.00
2018-12-07T11:24:55.776Z,752.00
2018-12-07T11:25:55.736Z,632.00
2018-12-07T11:26:55.689Z,596.00
2018-12-07T11:27:55.633Z,572.00
2018-12-07T11:28:55.590Z,512.00
2018-12-07T11:29:55.549Z,508.00
2018-12-07T11:30:55.500Z,444.00
2018-12-07T11:31:55.454Z,408.00
2018-12-07T11:32:55.413Z,372.00
2018-12-07T11:33:55.361Z,376.00
2018-12-07T11:34:55.321Z,384.00
2018-12-07T11:35:55.273Z,416.00
2018-12-07T11:36:55.227Z,436.00
2018-12-07T11:37:55.185Z,424.00
2018-12-07T11:38:55.133Z,448.00
2018-12-07T11:39:55.089Z,452.00
2018-12-07T11:40:55.040Z,440.00
2018-12-07T11:41:54.993Z,440.00
2018-12-07T11:42:54.948Z,440.00
2018-12-07T11:43:54.902Z,448.00
2018-12-07T11:44:54.868Z,460.00
2018-12-07T11:45:54.821Z,460.00
2018-12-07T11:46:54.767Z,488.00
2018-12-07T11:47:54.721Z,472.00
2018-12-07T11:48:54.675Z,492.00
2018-12-07T11:49:54.636Z,460.00
2018-12-07T11:50:54.583Z,496.00
2018-12-07T11:51:54.541Z,548.00
2018-12-07T11:52:54.499Z,580.00
2018-12-07T11:53:54.469Z,612.00
2018-12-07T11:54:54.401Z,588.00
2018-12-07T11:55:54.388Z,596.00
2018-12-07T11:56:54.318Z,644.00
2018-12-07T11:57:54.264Z,656.00
2018-12-07T11:58:54.218Z,696.00
2018-12-07T11:59:54.178Z,724.00
2018-12-07T12:00:54.129Z,736.00
2018-12-07T12:01:54.081Z,664.00
2018-12-07T12:02:54.044Z,668.00
2018-12-07T12:03:54.006Z,604.00
2018-12-07T12:04:53.961Z,556.00
2018-12-07T12:05:53.903Z,532.00
2018-12-07T12:06:53.854Z,560.00
2018-12-07T12:07:53.817Z,564.00
2018-12-07T12:08:53.763Z,604.00
2018-12-07T12:09:53.717Z,692.00
2018-12-07T12:10:53.670Z,628.00
2018-12-07T12:11:53.626Z,672.00
2018-12-07T12:12:53.579Z,724.00
2018-12-07T12:13:53.535Z,660.00
2018-12-07T12:14:53.490Z,704.00
2018-12-07T12:15:53.446Z,696.00
2018-12-07T12:16:53.403Z,672.00
2018-12-07T12:17:53.363Z,640.00
2018-12-07T12:18:53.306Z,628.00
2018-12-07T12:19:53.265Z,644.00
2018-12-07T12:20:53.216Z,780.00
2018-12-07T12:21:53.177Z,900.00
2018-12-07T12:22:53.129Z,852.00
2018-12-07T12:23:53.820Z,772.00
2018-12-07T12:24:53.045Z,848.00
2018-12-07T12:25:52.989Z,856.00
2018-12-07T12:26:52.952Z,700.00
2018-12-07T12:27:52.902Z,928.00
2018-12-07T12:28:52.859Z,1092.00
2018-12-07T12:29:52.807Z,1156.00
2018-12-07T12:30:52.771Z,1144.00
2018-12-07T12:31:52.722Z,1096.00
2018-12-07T12:32:52.673Z,1176.00
2018-12-07T12:33:52.627Z,1552.00
2018-12-07T12:34:52.579Z,1392.00
2018-12-07T12:35:52.534Z,1492.00
2018-12-07T12:36:52.491Z,1280.00
2018-12-07T12:37:52.443Z,1396.00
2018-12-07T12:38:52.407Z,1856.00
2018-12-07T12:39:52.353Z,1504.00
2018-12-07T12:40:52.309Z,1752.00
2018-12-07T12:41:52.263Z,1372.00
2018-12-07T12:42:52.223Z,1296.00
2018-12-07T12:43:52.180Z,1636.00
2018-12-07T12:44:52.133Z,1816.00
2018-12-07T12:45:52.081Z,1868.00
2018-12-07T12:46:52.040Z,1704.00
2018-12-07T12:47:51.990Z,1268.00
2018-12-07T12:48:51.945Z,1324.00
2018-12-07T12:49:51.898Z,1208.00
2018-12-07T12:50:51.854Z,1224.00
2018-12-07T12:51:51.814Z,1064.00
2018-12-07T12:52:51.772Z,1216.00
2018-12-07T12:53:51.719Z,860.00
2018-12-07T12:54:51.676Z,756.00
2018-12-07T12:55:51.629Z,576.00